createdAt,value
2018-12-14T00:02:26.453Z,99913.38
2018-12-14T00:04:56.358Z,99915.49
2018-12-14T00:07:27.036Z,99916.47
2018-12-14T00:09:58.865Z,99920.02
2018-12-14T00:12:29.578Z,99915.65
2018-12-14T00:14:59.667Z,99918.09
2018-12-14T00:17:29.314Z,99915.83
2018-12-14T00:19:59.656Z,99916.94
2018-12-14T00:22:29.838Z,99922.27
2018-12-14T00:25:02.615Z,99919.84
2018-12-14T00:27:35.809Z,99919.37
2018-12-14T00:30:07.353Z,99921.62
2018-12-14T00:32:37.031Z,99924.37
2018-12-14T00:35:07.761Z,99929.08
2018-12-14T00:37:37.282Z,99926.97
2018-12-14T00:40:07.455Z,99925.86
2018-12-14T00:42:37.557Z,99924.23
2018-12-14T00:45:07.604Z,99926.48
2018-12-14T00:47:37.506Z,99923.89
2018-12-14T00:50:08.971Z,99928.74
2018-12-14T00:52:40.575Z,99925.99
2018-12-14T00:55:10.541Z,99930.02
2018-12-14T00:57:41.515Z,99935.40
2018-12-14T01:00:12.259Z,99932.15
2018-12-14T01:02:41.893Z,99946.58
2018-12-14T01:05:13.514Z,99937.66
2018-12-14T01:07:43.276Z,99940.58
2018-12-14T01:10:13.677Z,99942.02
2018-12-14T01:12:43.266Z,99941.34
2018-12-14T01:15:13.902Z,99831.34
2018-12-14T01:17:43.996Z,99945.84
2018-12-14T01:20:16.403Z,99941.81
2018-12-14T01:22:47.846Z,99943.61
2018-12-14T01:25:17.966Z,99940.05
2018-12-14T01:27:50.213Z,99936.02
2018-12-14T01:30:20.621Z,99935.67
2018-12-14T01:32:50.644Z,99929.55
2018-12-14T01:35:20.890Z,99935.55
2018-12-14T01:37:51.242Z,99935.70
2018-12-14T01:40:20.921Z,99931.81
2018-12-14T01:42:51.420Z,99935.06
2018-12-14T01:45:21.075Z,99924.66
2018-12-14T01:47:50.922Z,99933.42
2018-12-14T01:50:21.087Z,99930.97
2018-12-14T01:52:50.906Z,99930.98
2018-12-14T01:55:21.290Z,99929.20
2018-12-14T01:57:51.678Z,99929.01
2018-12-14T02:00:22.389Z,99935.67
2018-12-14T02:02:52.299Z,99933.23
2018-12-14T02:05:22.152Z,99935.00
2018-12-14T02:07:51.641Z,99931.66
2018-12-14T02:10:21.145Z,99935.89
2018-12-14T02:12:51.591Z,99921.96
2018-12-14T02:15:21.690Z,99926.80
2018-12-14T02:17:51.313Z,99931.03
2018-12-14T02:20:21.192Z,99928.39
2018-12-14T02:22:50.971Z,99926.94
2018-12-14T02:25:22.802Z,99887.77
2018-12-14T02:27:52.955Z,99932.47
2018-12-14T02:30:33.259Z,99926.15
2018-12-14T02:33:04.390Z,99917.41
2018-12-14T02:35:36.793Z,99919.37
2018-12-14T02:38:07.892Z,99919.88
2018-12-14T02:40:38.344Z,99923.61
2018-12-14T02:43:07.849Z,99926.39
2018-12-14T02:45:37.547Z,99922.99
2018-12-14T02:48:08.656Z,99919.77
2018-12-14T02:50:38.595Z,99931.45
2018-12-14T02:53:08.709Z,99918.82
2018-12-14T02:55:39.077Z,99921.70
2018-12-14T02:58:08.881Z,99926.55
2018-12-14T03:00:38.725Z,99919.58
2018-12-14T03:03:09.094Z,99927.16
2018-12-14T03:05:40.975Z,99925.86
2018-12-14T03:08:11.555Z,99932.33
2018-12-14T03:10:42.333Z,99927.77
2018-12-14T03:13:11.991Z,99921.09
2018-12-14T03:15:41.431Z,99920.27
2018-12-14T03:18:11.772Z,99920.27
2018-12-14T03:20:41.881Z,99920.42
2018-12-14T03:23:12.070Z,99916.86
2018-12-14T03:25:42.899Z,99924.10
2018-12-14T03:28:20.126Z,99924.30
2018-12-14T03:30:50.062Z,99928.66
2018-12-14T03:33:19.925Z,99926.88
2018-12-14T03:35:49.712Z,99929.00
2018-12-14T03:38:20.528Z,99928.32
2018-12-14T03:40:51.647Z,99930.44
2018-12-14T03:43:23.419Z,99924.53
2018-12-14T03:45:54.530Z,99935.39
2018-12-14T03:48:24.948Z,99929.94
2018-12-14T03:50:55.467Z,99916.91
2018-12-14T03:53:26.108Z,99823.66
2018-12-14T03:55:55.925Z,99926.69
2018-12-14T03:58:25.742Z,99929.61
2018-12-14T04:00:56.145Z,99924.92
2018-12-14T04:03:26.287Z,99934.47
2018-12-14T04:05:57.635Z,99927.02
2018-12-14T04:08:27.703Z,99930.56
2018-12-14T04:10:58.955Z,99918.43
2018-12-14T04:13:37.838Z,99848.69
2018-12-14T04:16:13.684Z,99933.34
2018-12-14T04:18:44.753Z,99930.58
2018-12-14T04:21:15.352Z,99932.40
2018-12-14T04:23:45.537Z,99929.33
2018-12-14T04:26:16.086Z,99925.92
2018-12-14T04:28:46.056Z,99924.78
2018-12-14T04:31:20.753Z,99925.64
2018-12-14T04:33:52.962Z,99930.78
2018-12-14T04:36:25.636Z,99935.34
2018-12-14T04:38:55.999Z,99929.48
2018-12-14T04:41:27.388Z,99828.70
2018-12-14T04:43:57.050Z,99931.12
2018-12-14T04:46:28.469Z,99925.92
2018-12-14T04:49:01.747Z,99943.91
2018-12-14T04:51:34.369Z,99935.67
2018-12-14T04:54:05.706Z,99922.72
2018-12-14T04:56:35.899Z,99929.66
2018-12-14T04:59:09.632Z,99823.05
2018-12-14T05:01:39.777Z,99852.56
2018-12-14T05:04:10.097Z,99931.58
2018-12-14T05:06:39.758Z,99946.11
2018-12-14T05:09:10.955Z,99934.93
2018-12-14T05:11:41.586Z,99941.26
2018-12-14T05:14:13.225Z,99938.55
2018-12-14T05:16:45.354Z,99942.62
2018-12-14T05:19:16.904Z,99952.12
2018-12-14T05:21:48.655Z,99946.78
2018-12-14T05:24:19.039Z,99940.94
2018-12-14T05:26:49.334Z,99937.04
2018-12-14T05:29:19.542Z,99936.06
2018-12-14T05:31:50.778Z,99931.51
2018-12-14T05:34:21.261Z,99934.69
2018-12-14T05:36:52.542Z,99943.97
2018-12-14T05:39:22.481Z,99948.09
2018-12-14T05:41:56.471Z,99951.25
2018-12-14T05:44:26.464Z,99949.73
2018-12-14T05:47:00.219Z,99951.06
2018-12-14T05:49:30.181Z,99954.69
2018-12-14T05:52:01.805Z,99953.47
2018-12-14T05:54:31.849Z,99955.34
2018-12-14T05:57:01.381Z,99963.01
2018-12-14T05:59:32.083Z,99957.29
2018-12-14T06:02:04.568Z,99956.71
2018-12-14T06:04:33.924Z,99962.80
2018-12-14T06:07:05.287Z,99963.20
2018-12-14T06:09:34.996Z,99969.29
2018-12-14T06:12:05.216Z,99881.91
2018-12-14T06:14:35.966Z,99967.50
2018-12-14T06:17:19.631Z,99851.87
2018-12-14T06:19:49.092Z,99869.50
2018-12-14T06:22:20.134Z,99967.44
2018-12-14T06:24:49.609Z,99964.30
2018-12-14T06:27:20.485Z,99966.80
2018-12-14T06:29:51.361Z,99973.00
2018-12-14T06:32:22.533Z,99971.19
2018-12-14T06:34:52.763Z,99975.62
2018-12-14T06:37:23.580Z,99981.55
2018-12-14T06:39:55.581Z,99979.05
2018-12-14T06:42:25.524Z,99985.29
2018-12-14T06:44:57.437Z,99983.95
2018-12-14T06:47:30.366Z,99989.02
2018-12-14T06:50:00.814Z,99988.02
2018-12-14T06:52:32.938Z,99988.70
2018-12-14T06:55:02.908Z,99992.70
2018-12-14T06:57:33.409Z,99798.91
2018-12-14T07:00:03.572Z,99996.52
2018-12-14T07:02:33.199Z,99996.39
2018-12-14T07:05:03.176Z,99998.02
2018-12-14T07:07:32.527Z,100010.58
2018-12-14T07:10:02.151Z,100010.37
2018-12-14T07:12:32.229Z,100005.36
2018-12-14T07:15:05.057Z,100012.47
2018-12-14T07:17:35.219Z,100021.64
2018-12-14T07:20:07.543Z,100014.71
2018-12-14T07:22:37.357Z,100020.34
2018-12-14T07:25:09.672Z,100024.72
2018-12-14T07:27:39.669Z,100027.30
2018-12-14T07:30:10.586Z,100033.53
2018-12-14T07:32:40.281Z,100042.91
2018-12-14T07:35:10.913Z,100037.06
2018-12-14T07:37:40.484Z,100038.70
2018-12-14T07:40:12.495Z,100044.67
2018-12-14T07:42:43.103Z,100051.00
2018-12-14T07:45:13.618Z,100051.19
2018-12-14T07:47:43.340Z,100052.13
2018-12-14T07:50:14.037Z,100057.11
2018-12-14T07:52:43.945Z,100058.73
2018-12-14T07:55:13.639Z,100063.43
2018-12-14T07:57:43.973Z,100064.91
2018-12-14T08:00:13.682Z,100065.94
2018-12-14T08:02:45.075Z,100075.92
2018-12-14T08:05:15.256Z,100084.95
2018-12-14T08:07:44.818Z,100076.27
2018-12-14T08:10:29.788Z,100085.89
2018-12-14T08:13:08.648Z,100089.64
2018-12-14T08:15:41.327Z,100087.73
2018-12-14T08:18:11.664Z,100091.09
2018-12-14T08:20:41.967Z,100095.13
2018-12-14T08:23:12.221Z,100096.69
2018-12-14T08:25:42.939Z,100095.03
2018-12-14T08:28:13.147Z,100094.47
2018-12-14T08:30:43.825Z,100099.34
2018-12-14T08:33:14.909Z,100105.30
2018-12-14T08:35:44.730Z,100098.05
2018-12-14T08:38:14.557Z,100099.25
2018-12-14T08:40:45.423Z,100096.30
2018-12-14T08:43:17.307Z,100100.12
2018-12-14T08:45:47.495Z,100103.81
2018-12-14T08:48:17.494Z,100104.40
2018-12-14T08:50:48.547Z,100099.94
2018-12-14T08:53:19.562Z,100106.99
2018-12-14T08:55:49.314Z,100112.06
2018-12-14T08:58:19.280Z,100109.38
2018-12-14T09:00:49.700Z,100112.20
2018-12-14T09:03:19.345Z,100117.55
2018-12-14T09:05:53.082Z,100116.31
2018-12-14T09:08:25.970Z,100121.25
2018-12-14T09:10:55.576Z,100035.42
2018-12-14T09:13:25.344Z,100121.66
2018-12-14T09:15:55.017Z,100118.11
2018-12-14T09:18:25.564Z,100120.25
2018-12-14T09:21:14.108Z,100122.16
2018-12-14T09:23:45.315Z,100123.38
2018-12-14T09:26:15.723Z,100122.25
2018-12-14T09:28:47.266Z,100128.92
2018-12-14T09:31:18.084Z,100124.59
2018-12-14T09:33:48.529Z,100126.27
2018-12-14T09:36:19.662Z,100128.24
2018-12-14T09:38:51.521Z,100123.42
2018-12-14T09:41:27.113Z,100123.76
2018-12-14T09:43:58.358Z,100034.20
2018-12-14T09:46:28.822Z,100124.82
2018-12-14T09:48:58.681Z,100127.30
2018-12-14T09:51:28.271Z,100124.92
2018-12-14T09:54:00.862Z,100126.23
2018-12-14T09:56:33.820Z,100028.56
2018-12-14T09:59:06.002Z,100135.02
2018-12-14T10:01:35.967Z,100122.73
2018-12-14T10:04:10.192Z,99986.88
2018-12-14T10:06:43.087Z,100121.14
2018-12-14T10:09:14.411Z,100121.52
2018-12-14T10:11:55.119Z,100117.80
2018-12-14T10:14:25.670Z,100117.80
2018-12-14T10:16:56.114Z,100120.60
2018-12-14T10:19:26.843Z,100118.22
2018-12-14T10:21:56.883Z,100117.05
2018-12-14T10:24:28.435Z,100114.73
2018-12-14T10:26:58.628Z,100122.23
2018-12-14T10:29:29.593Z,100121.95
2018-12-14T10:31:59.684Z,100117.73
2018-12-14T10:34:30.926Z,100117.24
2018-12-14T10:37:05.835Z,99973.64
2018-12-14T10:39:36.274Z,100115.66
2018-12-14T10:42:08.707Z,100117.44
2018-12-14T10:44:38.849Z,100108.05
2018-12-14T10:47:08.836Z,100105.17
2018-12-14T10:49:38.352Z,100104.08
2018-12-14T10:52:08.320Z,100103.30
2018-12-14T10:54:39.217Z,100106.88
2018-12-14T10:57:08.570Z,100109.98
2018-12-14T10:59:39.390Z,100106.58
2018-12-14T11:02:09.969Z,99992.41
2018-12-14T11:04:40.008Z,100104.95
2018-12-14T11:07:11.289Z,100103.36
2018-12-14T11:09:42.142Z,100102.20
2018-12-14T11:12:11.555Z,100040.59
2018-12-14T11:14:40.928Z,100098.02
2018-12-14T11:17:10.491Z,100097.05
2018-12-14T11:19:42.144Z,100099.98
2018-12-14T11:22:11.616Z,100101.47
2018-12-14T11:24:42.564Z,100093.05
2018-12-14T11:27:11.992Z,100099.88
2018-12-14T11:29:43.128Z,100096.16
2018-12-14T11:32:12.864Z,100095.67
2018-12-14T11:34:43.153Z,100099.39
2018-12-14T11:37:14.229Z,100086.28
2018-12-14T11:39:44.324Z,100093.41
2018-12-14T11:42:13.833Z,100091.80
2018-12-14T11:44:43.538Z,100088.23
2018-12-14T11:47:18.184Z,100095.84
2018-12-14T11:49:45.651Z,100091.16
2018-12-14T11:52:16.973Z,100097.33
2018-12-14T11:54:48.325Z,100098.11
2018-12-14T11:57:18.848Z,100092.26
2018-12-14T11:59:49.246Z,99913.83
2018-12-14T12:02:20.075Z,100090.80
2018-12-14T12:04:49.757Z,100094.25
2018-12-14T12:07:19.981Z,100092.77
2018-12-14T12:09:49.917Z,100092.26
2018-12-14T12:12:21.011Z,100095.37
2018-12-14T12:14:51.464Z,100097.63
2018-12-14T12:17:22.762Z,100094.70
2018-12-14T12:19:52.657Z,99994.30
2018-12-14T12:22:22.247Z,100091.98
2018-12-14T12:24:52.628Z,100090.32
2018-12-14T12:27:22.761Z,100089.03
2018-12-14T12:29:52.469Z,100092.75
2018-12-14T12:32:22.245Z,100094.98
2018-12-14T12:34:54.994Z,100097.58
2018-12-14T12:37:26.453Z,100099.72
2018-12-14T12:39:59.147Z,100098.58
2018-12-14T12:42:29.978Z,100101.84
2018-12-14T12:44:59.452Z,100100.36
2018-12-14T12:47:30.748Z,100097.28
2018-12-14T12:50:02.140Z,100094.83
2018-12-14T12:52:34.064Z,100098.88
2018-12-14T12:55:03.721Z,100096.31
2018-12-14T12:57:35.118Z,100112.67
2018-12-14T13:00:09.502Z,100100.50
2018-12-14T13:02:42.743Z,100094.94
2018-12-14T13:05:18.120Z,100105.28
2018-12-14T13:07:52.048Z,100096.38
2018-12-14T13:10:25.935Z,100103.84
2018-12-14T13:12:57.048Z,100094.27
2018-12-14T13:15:26.494Z,100089.41
2018-12-14T13:17:57.152Z,100089.89
2018-12-14T13:20:27.098Z,100087.11
2018-12-14T13:23:58.812Z,100084.52
2018-12-14T13:26:32.414Z,100090.34
2018-12-14T13:29:02.371Z,100092.63
2018-12-14T13:31:32.151Z,100092.92
2018-12-14T13:34:01.736Z,100092.41
2018-12-14T13:36:32.548Z,100094.37
2018-12-14T13:39:02.499Z,100097.77
2018-12-14T13:41:35.420Z,100093.55
2018-12-14T13:44:06.294Z,100095.95
2018-12-14T13:46:36.108Z,100100.12
2018-12-14T13:49:06.311Z,100106.14
2018-12-14T13:51:36.604Z,100095.45
2018-12-14T13:54:21.708Z,100098.67
2018-12-14T13:56:51.631Z,100100.60
2018-12-14T13:59:22.792Z,100099.02
2018-12-14T14:01:53.004Z,100102.86
2018-12-14T14:04:23.431Z,100103.32
2018-12-14T14:06:53.417Z,100104.43
2018-12-14T14:09:25.252Z,100109.28
2018-12-14T14:11:57.124Z,100102.11
2018-12-14T14:14:27.527Z,100113.00
2018-12-14T14:16:58.319Z,100108.94
2018-12-14T14:19:32.288Z,100113.16
2018-12-14T14:22:03.124Z,100118.05
2018-12-14T14:24:34.328Z,100115.94
2018-12-14T14:27:06.160Z,100116.23
2018-12-14T14:29:37.279Z,100124.00
2018-12-14T14:32:11.633Z,100119.10
2018-12-14T14:34:47.943Z,100125.44
2018-12-14T14:37:20.358Z,100129.48
2018-12-14T14:39:54.539Z,100104.27
2018-12-14T14:42:32.160Z,100125.55
2018-12-14T14:45:06.739Z,100126.70
2018-12-14T14:47:39.426Z,100130.90
2018-12-14T14:50:14.295Z,100142.88
2018-12-14T14:52:45.722Z,100137.98
2018-12-14T14:55:19.117Z,100126.23
2018-12-14T14:57:56.392Z,100145.13
2018-12-14T15:00:31.643Z,100154.36
2018-12-14T15:03:19.080Z,100158.57
2018-12-14T15:05:49.965Z,100161.64
2018-12-14T15:08:23.492Z,100165.39
2018-12-14T15:10:55.928Z,100167.77
2018-12-14T15:13:31.671Z,100173.94
2018-12-14T15:16:05.847Z,100180.38
2018-12-14T15:18:35.943Z,100179.37
2018-12-14T15:21:08.182Z,100177.10
2018-12-14T15:23:38.302Z,100180.38
2018-12-14T15:26:10.114Z,100182.45
2018-12-14T15:28:40.083Z,100185.86
2018-12-14T15:31:12.044Z,100181.69
2018-12-14T15:33:42.749Z,100178.48
2018-12-14T15:36:14.148Z,100187.38
2018-12-14T15:38:45.197Z,100187.55
2018-12-14T15:41:15.923Z,100080.08
2018-12-14T15:43:46.308Z,100198.09
2018-12-14T15:46:17.892Z,100198.54
2018-12-14T15:48:48.004Z,100196.77
2018-12-14T15:51:20.805Z,100201.50
2018-12-14T15:53:53.030Z,100198.28
2018-12-14T15:56:25.396Z,100212.94
2018-12-14T15:58:56.339Z,100210.95
2018-12-14T16:01:30.248Z,100206.58
2018-12-14T16:04:00.548Z,100216.92
2018-12-14T16:06:33.083Z,100210.92
2018-12-14T16:09:07.796Z,100208.12
2018-12-14T16:11:47.078Z,100208.95
2018-12-14T16:14:24.364Z,100213.52
2018-12-14T16:16:55.213Z,100212.19
2018-12-14T16:19:26.284Z,100213.98
2018-12-14T16:22:00.225Z,100219.80
2018-12-14T16:24:33.197Z,100215.80
2018-12-14T16:27:10.019Z,100226.70
2018-12-14T16:29:42.395Z,100225.68
2018-12-14T16:32:17.881Z,100220.50
2018-12-14T16:34:51.822Z,100224.92
2018-12-14T16:37:24.608Z,100222.47
2018-12-14T16:39:55.571Z,100226.73
2018-12-14T16:42:28.314Z,100219.28
2018-12-14T16:45:03.300Z,100224.75
2018-12-14T16:47:36.663Z,100230.27
2018-12-14T16:50:08.710Z,100125.84
2018-12-14T16:52:42.163Z,100227.31
2018-12-14T16:55:13.646Z,100222.81
2018-12-14T16:57:49.735Z,100226.33
2018-12-14T17:00:29.767Z,100228.87
2018-12-14T17:03:02.887Z,100229.34
2018-12-14T17:05:36.609Z,100230.87
2018-12-14T17:08:12.027Z,100224.55
2018-12-14T17:10:47.471Z,100226.02
2018-12-14T17:13:21.208Z,100232.53
2018-12-14T17:15:59.482Z,100234.02
2018-12-14T17:18:35.346Z,100231.62
2018-12-14T17:21:11.466Z,100231.80
2018-12-14T17:23:43.034Z,100237.52
2018-12-14T17:26:18.285Z,100234.11
2018-12-14T17:28:52.089Z,100234.14
2018-12-14T17:31:23.182Z,100235.23
2018-12-14T17:33:56.891Z,100243.30
2018-12-14T17:36:30.255Z,100235.01
2018-12-14T17:39:02.026Z,100234.73
2018-12-14T17:41:33.996Z,100238.59
2018-12-14T17:44:08.718Z,100227.09
2018-12-14T17:46:46.200Z,100237.91
2018-12-14T17:49:23.443Z,100238.89
2018-12-14T17:51:59.166Z,100244.76
2018-12-14T17:54:31.323Z,100248.30
2018-12-14T17:57:09.262Z,100243.94
2018-12-14T17:59:41.388Z,100248.30
2018-12-14T18:02:15.206Z,100249.32
2018-12-14T18:04:46.849Z,100240.42
2018-12-14T18:07:17.004Z,100247.58
2018-12-14T18:09:47.383Z,100252.56
2018-12-14T18:12:17.645Z,100254.20
2018-12-14T18:14:51.056Z,100262.15
2018-12-14T18:17:25.539Z,100260.98
2018-12-14T18:19:56.342Z,100258.06
2018-12-14T18:22:28.637Z,100261.74
2018-12-14T18:24:58.590Z,100255.44
2018-12-14T18:27:29.969Z,100255.58
2018-12-14T18:30:00.475Z,100259.91
2018-12-14T18:32:32.576Z,100256.50
2018-12-14T18:35:05.663Z,100259.57
2018-12-14T18:37:36.607Z,100253.03
2018-12-14T18:40:10.818Z,100254.29
2018-12-14T18:42:41.207Z,100257.59
2018-12-14T18:45:14.298Z,100266.42
2018-12-14T18:47:46.123Z,100256.98
2018-12-14T18:50:17.835Z,100267.37
2018-12-14T18:52:48.928Z,100266.39
2018-12-14T18:55:19.505Z,100274.16
2018-12-14T18:57:53.558Z,100278.16
2018-12-14T19:00:23.252Z,100281.88
2018-12-14T19:02:55.214Z,100287.60
2018-12-14T19:05:26.201Z,100288.42
2018-12-14T19:07:58.409Z,100288.73
2018-12-14T19:10:29.836Z,100295.61
2018-12-14T19:13:00.520Z,100298.86
2018-12-14T19:15:32.584Z,100301.45
2018-12-14T19:18:05.930Z,100305.20
2018-12-14T19:20:40.426Z,100304.10
2018-12-14T19:23:19.610Z,100307.31
2018-12-14T19:25:50.920Z,100308.27
2018-12-14T19:28:29.901Z,100314.47
2018-12-14T19:31:01.165Z,100317.06
2018-12-14T19:33:32.844Z,100311.71
2018-12-14T19:36:04.298Z,100319.01
2018-12-14T19:38:35.269Z,100320.48
2018-12-14T19:41:08.611Z,100315.94
2018-12-14T19:43:40.218Z,100321.50
2018-12-14T19:46:15.063Z,100328.42
2018-12-14T19:48:50.663Z,100331.25
2018-12-14T19:51:21.321Z,100335.97
2018-12-14T19:53:52.524Z,100329.62
2018-12-14T19:56:26.843Z,100340.19
2018-12-14T19:58:58.826Z,100337.16
2018-12-14T20:01:34.591Z,100349.78
2018-12-14T20:04:08.984Z,100341.73
2018-12-14T20:06:43.933Z,100337.16
2018-12-14T20:09:19.526Z,100337.60
2018-12-14T20:11:49.955Z,100341.69
2018-12-14T20:14:23.246Z,100242.27
2018-12-14T20:17:04.211Z,100347.97
2018-12-14T20:19:36.398Z,100344.77
2018-12-14T20:22:10.015Z,100341.25
2018-12-14T20:24:54.269Z,100349.95
2018-12-14T20:27:44.131Z,100352.16
2018-12-14T20:30:15.188Z,100356.36
2018-12-14T20:32:48.014Z,100361.75
2018-12-14T20:35:18.442Z,100353.67
2018-12-14T20:37:58.187Z,100359.20
2018-12-14T20:40:33.701Z,100354.86
2018-12-14T20:43:05.141Z,100354.59
2018-12-14T20:45:38.962Z,100355.75
2018-12-14T20:48:10.316Z,100354.93
2018-12-14T20:50:40.908Z,100361.07
2018-12-14T20:53:38.688Z,100361.20
2018-12-14T20:56:12.227Z,100366.88
2018-12-14T20:58:42.665Z,100368.03
2018-12-14T21:01:15.733Z,100373.08
2018-12-14T21:03:55.305Z,100371.92
2018-12-14T21:06:28.945Z,100376.90
2018-12-14T21:09:03.520Z,100371.88
2018-12-14T21:11:36.076Z,100377.41
2018-12-14T21:14:19.365Z,100374.81
2018-12-14T21:17:11.926Z,100373.83
2018-12-14T21:19:46.373Z,100375.43
2018-12-14T21:22:30.464Z,100387.44
2018-12-14T21:25:10.329Z,100374.23
2018-12-14T21:27:44.892Z,100374.84
2018-12-14T21:30:17.665Z,100378.47
2018-12-14T21:33:05.650Z,100384.47
2018-12-14T21:35:39.699Z,100288.02
2018-12-14T21:38:25.325Z,100289.48
2018-12-14T21:41:14.696Z,100390.88
2018-12-14T21:43:52.903Z,100385.04
2018-12-14T21:46:32.671Z,100385.35
2018-12-14T21:49:05.502Z,100382.76
2018-12-14T21:51:38.353Z,100386.03
2018-12-14T21:54:07.875Z,100385.42
2018-12-14T21:56:38.139Z,100386.89
2018-12-14T21:59:07.626Z,100379.89
2018-12-14T22:01:37.729Z,100381.70
2018-12-14T22:04:08.742Z,100387.23
2018-12-14T22:06:41.355Z,100385.02
2018-12-14T22:09:16.025Z,100385.02
2018-12-14T22:11:52.625Z,100387.95
2018-12-14T22:14:27.043Z,100385.02
2018-12-14T22:16:58.890Z,100386.80
2018-12-14T22:19:29.115Z,100385.80
2018-12-14T22:21:59.189Z,100392.97
2018-12-14T22:24:35.826Z,100386.89
2018-12-14T22:27:06.845Z,100389.11
2018-12-14T22:29:40.393Z,100286.34
2018-12-14T22:32:16.499Z,100382.70
2018-12-14T22:34:47.333Z,100383.69
2018-12-14T22:37:17.606Z,100378.36
2018-12-14T22:39:51.020Z,100381.12
2018-12-14T22:42:21.042Z,100385.22
2018-12-14T22:44:51.743Z,100380.52
2018-12-14T22:47:23.193Z,100383.92
2018-12-14T22:49:53.319Z,100279.98
2018-12-14T22:52:23.888Z,100374.31
2018-12-14T22:54:56.861Z,100377.00
2018-12-14T22:57:29.324Z,100373.52
2018-12-14T23:00:08.911Z,100370.44
2018-12-14T23:02:49.404Z,100368.08
2018-12-14T23:05:25.924Z,100365.02
2018-12-14T23:08:02.035Z,100368.36
2018-12-14T23:10:34.210Z,100371.29
2018-12-14T23:13:08.277Z,100377.77
2018-12-14T23:15:41.754Z,100365.36
2018-12-14T23:18:16.387Z,100371.05
2018-12-14T23:20:49.141Z,100261.92
2018-12-14T23:23:27.426Z,100376.92
2018-12-14T23:26:00.108Z,100380.13
2018-12-14T23:28:31.105Z,100378.22
2018-12-14T23:31:00.854Z,100377.92
2018-12-14T23:33:34.171Z,100380.98
2018-12-14T23:36:04.085Z,100332.80
2018-12-14T23:38:33.801Z,100383.78
2018-12-14T23:41:12.477Z,100374.23
2018-12-14T23:43:42.278Z,100388.83
2018-12-14T23:46:12.885Z,100377.17
2018-12-14T23:48:42.977Z,100384.12
2018-12-14T23:51:14.642Z,100388.28
2018-12-14T23:53:47.628Z,100390.06
2018-12-14T23:56:17.593Z,100384.73
2018-12-14T23:58:51.052Z,100388.28
